createdAt,value
2024-05-09T04:05:37.063Z,101119.20
2024-05-09T05:01:53.821Z,101045.60
2024-05-09T05:04:21.598Z,101042.60
2024-05-09T05:06:49.148Z,101046.60
2024-05-09T05:09:19.054Z,101045.60
2024-05-09T05:11:51.325Z,101045.80
2024-05-09T05:14:19.048Z,101048.80
2024-05-09T05:16:46.563Z,101051.00
2024-05-09T05:19:47.413Z,101049.00
2024-05-09T05:22:16.578Z,101059.20
2024-05-09T05:24:45.776Z,101063.00
2024-05-09T05:27:14.884Z,101072.20
2024-05-09T05:29:53.572Z,101071.60
2024-05-09T05:32:37.956Z,101075.20
2024-05-09T05:35:14.564Z,101072.20
2024-05-09T05:37:45.173Z,101075.20
2024-05-09T05:40:27.590Z,101077.60
2024-05-09T05:43:39.039Z,101079.80
2024-05-09T05:46:35.077Z,101085.80
2024-05-09T05:49:09.891Z,101087.80
2024-05-09T05:51:39.929Z,101087.20
2024-05-09T05:54:13.669Z,101089.40
2024-05-09T05:57:02.193Z,101092.60
2024-05-09T05:59:49.403Z,101090.40
2024-05-09T06:02:21.300Z,101092.20
2024-05-09T06:05:01.909Z,101092.60
2024-05-09T06:07:29.446Z,101094.60
2024-05-09T06:09:56.907Z,101094.60
2024-05-09T06:12:24.629Z,101099.80
2024-05-09T06:14:52.313Z,101104.00
2024-05-09T06:17:19.833Z,101099.40
2024-05-09T06:19:47.916Z,101103.40
2024-05-09T06:22:15.505Z,101109.20
2024-05-09T06:24:42.962Z,101111.80
2024-05-09T06:27:10.853Z,101108.20
2024-05-09T06:29:39.151Z,101108.20
2024-05-09T06:32:07.697Z,101112.60
2024-05-09T06:34:35.357Z,101112.60
2024-05-09T06:37:02.984Z,101115.00
2024-05-09T06:39:30.950Z,101109.40
2024-05-09T06:41:58.776Z,101108.40
2024-05-09T06:44:26.823Z,101109.40
2024-05-09T06:46:57.082Z,101109.00
2024-05-09T06:49:28.929Z,101105.40
2024-05-09T06:51:56.898Z,101101.80
2024-05-09T06:54:24.471Z,101107.40
2024-05-09T06:56:52.262Z,101107.00
2024-05-09T06:59:19.806Z,101106.60
2024-05-09T07:01:47.439Z,101100.20
2024-05-09T07:04:15.460Z,101103.00
2024-05-09T07:06:43.290Z,101106.00
2024-05-09T07:09:10.790Z,101097.80
2024-05-09T07:11:38.819Z,101099.40
2024-05-09T07:14:06.318Z,101099.80
2024-05-09T07:16:33.870Z,101100.00
2024-05-09T07:19:01.625Z,101097.20
2024-05-09T07:21:29.238Z,101095.20
2024-05-09T07:23:56.811Z,101092.00
2024-05-09T07:26:24.435Z,101092.00
2024-05-09T07:28:51.843Z,101088.80
2024-05-09T07:31:19.345Z,101093.00
2024-05-09T07:33:46.767Z,101090.20
2024-05-09T07:36:14.188Z,101090.80
2024-05-09T07:38:41.853Z,101091.20
2024-05-09T07:41:09.356Z,101089.00
2024-05-09T07:43:36.773Z,101092.80
2024-05-09T07:47:03.967Z,101087.40
2024-05-09T07:53:57.057Z,101083.80
2024-05-09T07:56:27.777Z,101081.20
2024-05-09T07:58:55.635Z,101088.40
2024-05-09T08:01:25.856Z,101080.40
2024-05-09T08:03:54.063Z,101075.80
2024-05-09T08:06:23.394Z,101081.00
2024-05-09T08:08:50.657Z,101080.80
2024-05-09T08:11:20.058Z,101073.60
2024-05-09T08:13:47.527Z,101080.20
2024-05-09T08:16:15.346Z,101076.60
2024-05-09T08:18:43.160Z,101077.20
2024-05-09T08:21:10.702Z,101070.40
2024-05-09T08:23:38.071Z,101072.20
2024-05-09T08:26:05.939Z,101068.00
2024-05-09T08:28:33.392Z,101071.60
2024-05-09T08:31:04.145Z,101069.00
2024-05-09T08:33:33.799Z,101070.20
2024-05-09T08:36:01.541Z,101076.40
2024-05-09T08:38:28.996Z,101070.60
2024-05-09T08:40:56.574Z,101073.00
2024-05-09T08:43:27.568Z,101072.20
2024-05-09T08:45:57.789Z,101069.20
2024-05-09T08:48:26.368Z,101070.20
2024-05-09T08:50:54.897Z,101065.20
2024-05-09T08:53:22.652Z,101055.40
2024-05-09T08:55:51.485Z,101057.40
2024-05-09T08:58:19.344Z,101053.60
2024-05-09T09:00:48.903Z,101057.00
2024-05-09T09:03:19.243Z,101061.20
2024-05-09T09:06:05.172Z,101066.00
2024-05-09T09:08:32.750Z,101065.40
2024-05-09T09:11:00.904Z,101059.40
2024-05-09T09:13:28.549Z,101061.40
2024-05-09T09:15:58.672Z,101062.60
2024-05-09T09:18:28.984Z,101067.40
2024-05-09T09:20:56.596Z,101064.60
2024-05-09T09:23:29.216Z,101064.20
2024-05-09T09:26:00.410Z,101065.40
2024-05-09T09:28:29.092Z,101076.80
2024-05-09T09:31:04.059Z,101069.40
2024-05-09T09:33:32.410Z,101064.00
2024-05-09T09:36:04.298Z,101064.40
2024-05-09T09:38:34.678Z,101061.60
2024-05-09T09:41:12.660Z,101054.00
2024-05-09T09:43:42.387Z,101060.20
2024-05-09T09:46:13.246Z,101049.20
2024-05-09T09:48:43.455Z,101060.40
2024-05-09T09:51:13.472Z,101060.20
2024-05-09T09:53:44.159Z,101067.00
2024-05-09T09:56:14.792Z,101053.80
2024-05-09T09:58:43.752Z,101056.60
2024-05-09T10:01:12.708Z,101055.80
2024-05-09T10:03:40.864Z,101040.60
2024-05-09T10:06:11.233Z,101035.00
2024-05-09T10:08:39.774Z,101035.80
2024-05-09T10:11:07.407Z,101040.40
2024-05-09T10:13:35.602Z,101041.40
2024-05-09T10:16:10.800Z,101041.20
2024-05-09T10:18:40.581Z,101040.00
2024-05-09T10:21:21.131Z,101045.40
2024-05-09T10:24:08.775Z,101037.00
2024-05-09T10:26:38.519Z,101035.00
2024-05-09T10:29:17.579Z,101032.40
2024-05-09T10:31:47.247Z,101031.00
2024-05-09T10:34:23.827Z,101030.80
2024-05-09T10:36:55.590Z,101029.80
2024-05-09T10:39:25.549Z,101016.20
2024-05-09T10:41:53.033Z,101025.20
2024-05-09T10:44:21.739Z,101017.80
2024-05-09T10:46:50.068Z,101017.60
2024-05-09T10:49:17.897Z,101017.60
2024-05-09T10:51:47.862Z,101010.20
2024-05-09T10:54:15.224Z,101011.80
2024-05-09T10:56:42.694Z,101006.00
2024-05-09T10:59:12.708Z,101006.40
2024-05-09T11:01:40.617Z,101002.60
2024-05-09T11:04:08.548Z,100997.80
2024-05-09T11:06:37.775Z,101000.20
2024-05-09T11:09:05.752Z,100996.60
2024-05-09T11:11:33.299Z,100994.80
2024-05-09T11:14:13.948Z,100994.80
2024-05-09T11:16:41.443Z,100996.40
2024-05-09T11:19:13.689Z,101004.40
2024-05-09T11:21:41.456Z,100992.00
2024-05-09T11:24:11.318Z,100986.20
2024-05-09T11:26:39.477Z,100981.60
2024-05-09T11:29:06.943Z,100984.80
2024-05-09T11:31:46.230Z,100983.40
2024-05-09T11:34:15.193Z,100980.40
2024-05-09T11:36:42.864Z,100977.40
2024-05-09T11:39:11.371Z,100976.40
2024-05-09T11:41:39.230Z,100980.20
2024-05-09T11:44:06.861Z,100975.80
2024-05-09T11:46:34.209Z,100976.00
2024-05-09T11:49:01.712Z,100969.40
2024-05-09T11:51:29.071Z,100966.00
2024-05-09T11:53:56.587Z,100968.80
2024-05-09T11:56:23.966Z,100970.60
2024-05-09T11:58:51.562Z,100970.20
2024-05-09T12:01:23.704Z,100968.20
2024-05-09T12:03:55.164Z,100961.80
2024-05-09T12:06:23.148Z,100955.40
2024-05-09T12:08:50.782Z,100953.80
2024-05-09T12:11:18.300Z,100954.60
2024-05-09T12:13:45.750Z,100954.20
2024-05-09T12:16:14.005Z,100953.80
2024-05-09T12:18:42.023Z,100950.20
2024-05-09T12:21:09.983Z,100948.40
2024-05-09T12:23:37.686Z,100943.00
2024-05-09T12:26:05.631Z,100945.20
2024-05-09T12:28:33.343Z,100949.80
2024-05-09T12:31:00.810Z,100949.00
2024-05-09T12:33:41.111Z,100949.40
2024-05-09T12:36:08.790Z,100943.20
2024-05-09T12:38:36.246Z,100942.80
2024-05-09T12:41:05.184Z,100945.40
2024-05-09T12:43:33.722Z,100944.00
2024-05-09T12:46:03.093Z,100946.00
2024-05-09T12:48:30.695Z,100938.20
2024-05-09T12:50:59.288Z,100940.20
2024-05-09T12:53:26.667Z,100935.40
2024-05-09T12:55:59.729Z,100931.80
2024-05-09T12:58:29.493Z,100937.40
2024-05-09T13:00:58.214Z,100929.00
2024-05-09T13:03:25.924Z,100930.80
2024-05-09T13:05:54.630Z,100929.40
2024-05-09T13:08:22.222Z,100929.80
2024-05-09T13:10:50.593Z,100925.60
2024-05-09T13:13:18.294Z,100914.20
2024-05-09T13:15:46.016Z,100913.40
2024-05-09T13:18:13.914Z,100911.20
2024-05-09T13:20:41.660Z,100916.40
2024-05-09T13:23:09.131Z,100918.80
2024-05-09T13:25:37.889Z,100918.00
2024-05-09T13:28:07.518Z,100915.40
2024-05-09T13:30:39.978Z,100916.20
2024-05-09T13:33:12.125Z,100911.60
2024-05-09T13:35:47.599Z,100907.40
2024-05-09T13:38:20.328Z,100906.60
2024-05-09T13:40:48.682Z,100905.20
2024-05-09T13:43:17.266Z,100908.20
2024-05-09T13:45:45.179Z,100901.40
2024-05-09T13:48:13.375Z,100896.00
2024-05-09T13:51:05.936Z,100896.60
2024-05-09T13:53:33.251Z,100893.20
2024-05-09T13:56:00.717Z,100892.60
2024-05-09T13:58:28.013Z,100890.60
2024-05-09T14:00:56.514Z,100891.00
2024-05-09T14:03:26.619Z,100883.60
2024-05-09T14:05:56.390Z,100881.80
2024-05-09T14:08:24.794Z,100879.60
2024-05-09T14:10:53.165Z,100883.20
2024-05-09T14:13:21.042Z,100877.40
2024-05-09T14:15:49.248Z,100886.20
2024-05-09T14:18:17.809Z,100869.80
2024-05-09T14:20:45.263Z,100868.80
2024-05-09T14:23:12.703Z,100873.20
2024-05-09T14:25:42.528Z,100874.20
2024-05-09T14:28:13.082Z,100867.40
2024-05-09T14:30:41.810Z,100865.60
2024-05-09T14:33:10.201Z,100862.40
2024-05-09T14:35:38.656Z,100858.40
2024-05-09T14:38:08.714Z,100856.00
2024-05-09T14:40:42.082Z,100853.20
2024-05-09T14:43:14.459Z,100852.80
2024-05-09T14:45:45.162Z,100844.80
2024-05-09T14:48:16.404Z,100842.00
2024-05-09T14:50:44.063Z,100835.40
2024-05-09T14:53:13.633Z,100835.60
2024-05-09T14:55:43.023Z,100831.60
2024-05-09T14:58:12.716Z,100830.40
2024-05-09T15:00:49.715Z,100825.80
2024-05-09T15:03:20.812Z,100826.80
2024-05-09T15:05:49.965Z,100821.20
2024-05-09T15:08:19.291Z,100818.20
2024-05-09T15:10:49.044Z,100815.40
2024-05-09T15:13:17.485Z,100812.80
2024-05-09T15:15:45.233Z,100814.60
2024-05-09T15:18:14.744Z,100808.00
2024-05-09T15:20:44.287Z,100802.00
2024-05-09T15:23:11.784Z,100802.20
2024-05-09T15:25:39.496Z,100800.20
2024-05-09T15:28:07.831Z,100796.20
2024-05-09T15:30:35.906Z,100795.20
2024-05-09T15:33:04.277Z,100796.40
2024-05-09T15:35:33.453Z,100795.40
2024-05-09T15:38:02.416Z,100793.60
2024-05-09T15:40:37.499Z,100791.60
2024-05-09T15:43:10.347Z,100784.80
2024-05-09T15:45:40.762Z,100788.20
2024-05-09T15:48:09.986Z,100782.40
2024-05-09T15:50:41.001Z,100774.60
2024-05-09T15:53:13.042Z,100778.00
2024-05-09T15:55:42.384Z,100778.60
2024-05-09T15:58:10.438Z,100777.80
2024-05-09T16:00:41.594Z,100778.40
2024-05-09T16:03:13.529Z,100771.40
2024-05-09T16:05:46.743Z,100764.40
2024-05-09T16:08:15.977Z,100767.60
2024-05-09T16:10:45.810Z,100765.80
2024-05-09T16:13:16.030Z,100762.80
2024-05-09T16:15:44.311Z,100762.60
2024-05-09T16:18:15.282Z,100757.60
2024-05-09T16:20:44.869Z,100760.80
2024-05-09T16:23:20.926Z,100754.80
2024-05-09T16:25:51.065Z,100750.80
2024-05-09T16:28:19.879Z,100751.60
2024-05-09T16:30:48.185Z,100751.00
2024-05-09T16:33:19.049Z,100748.80
2024-05-09T16:35:46.966Z,100748.20
2024-05-09T16:38:14.475Z,100754.40
2024-05-09T16:40:42.100Z,100748.80
2024-05-09T16:43:13.125Z,100752.00
2024-05-09T16:45:44.291Z,100749.00
2024-05-09T16:48:13.686Z,100751.80
2024-05-09T16:50:41.358Z,100751.00
2024-05-09T16:53:09.089Z,100750.00
2024-05-09T16:55:36.920Z,100752.20
2024-05-09T16:58:07.361Z,100756.80
2024-05-09T17:00:40.799Z,100754.20
2024-05-09T17:03:14.499Z,100756.20
2024-05-09T17:05:46.025Z,100751.20
2024-05-09T17:08:16.436Z,100750.00
2024-05-09T17:10:50.581Z,100751.60
2024-05-09T17:13:18.738Z,100753.80
2024-05-09T17:15:47.000Z,100758.00
2024-05-09T17:18:15.312Z,100752.40
2024-05-09T17:20:43.031Z,100756.60
2024-05-09T17:23:14.103Z,100756.40
2024-05-09T17:25:42.830Z,100758.60
2024-05-09T17:28:11.365Z,100754.80
2024-05-09T17:30:41.587Z,100754.80
2024-05-09T17:33:11.718Z,100762.60
2024-05-09T17:35:40.672Z,100766.00
2024-05-09T17:38:08.242Z,100763.60
2024-05-09T17:40:37.744Z,100761.60
2024-05-09T17:43:08.997Z,100755.80
2024-05-09T17:45:41.724Z,100756.60
2024-05-09T17:48:11.893Z,100760.60
2024-05-09T17:50:41.216Z,100756.80
2024-05-09T17:53:09.920Z,100758.80
2024-05-09T17:55:39.643Z,100760.60
2024-05-09T17:58:07.685Z,100761.40
2024-05-09T18:00:39.588Z,100761.00
2024-05-09T18:03:11.027Z,100764.20
2024-05-09T18:05:39.365Z,100766.20
2024-05-09T18:08:08.024Z,100770.40
2024-05-09T18:10:38.492Z,100772.00
2024-05-09T18:13:09.125Z,100771.80
2024-05-09T18:15:37.487Z,100770.40
2024-05-09T18:18:06.945Z,100774.60
2024-05-09T18:20:42.279Z,100770.40
2024-05-09T18:23:16.272Z,100772.80
2024-05-09T18:25:46.875Z,100774.20
2024-05-09T18:28:16.241Z,100781.40
2024-05-09T18:30:44.618Z,100785.20
2024-05-09T18:33:12.559Z,100787.00
2024-05-09T18:35:45.572Z,100794.80
2024-05-09T18:38:14.338Z,100797.60
2024-05-09T18:40:45.128Z,100799.00
2024-05-09T18:43:15.643Z,100795.20
2024-05-09T18:45:44.760Z,100798.00
2024-05-09T18:48:13.942Z,100801.00
2024-05-09T18:50:42.030Z,100798.80
2024-05-09T18:53:13.390Z,100804.80
2024-05-09T18:55:42.400Z,100809.60
2024-05-09T18:58:11.093Z,100808.60
2024-05-09T19:00:43.043Z,100811.60
2024-05-09T19:03:16.544Z,100817.60
2024-05-09T19:05:46.325Z,100820.40
2024-05-09T19:08:15.776Z,100823.00
2024-05-09T19:10:48.012Z,100822.80
2024-05-09T19:13:16.075Z,100822.40
2024-05-09T19:15:44.566Z,100826.40
2024-05-09T19:18:13.920Z,100826.00
2024-05-09T19:20:47.654Z,100831.00
2024-05-09T19:23:17.483Z,100826.60
2024-05-09T19:25:46.957Z,100830.00
2024-05-09T19:28:16.769Z,100831.20
2024-05-09T19:30:47.661Z,100832.20
2024-05-09T19:33:18.593Z,100836.80
2024-05-09T19:35:48.044Z,100838.00
2024-05-09T19:38:18.088Z,100837.80
2024-05-09T19:40:46.254Z,100842.20
2024-05-09T19:43:16.727Z,100843.80
2024-05-09T19:45:46.402Z,100844.80
2024-05-09T19:48:17.981Z,100847.80
2024-05-09T19:50:52.391Z,100851.20
2024-05-09T19:53:22.590Z,100853.60
2024-05-09T19:55:51.994Z,100853.20
2024-05-09T19:58:20.726Z,100855.40
2024-05-09T20:00:48.733Z,100848.20
2024-05-09T20:03:19.935Z,100852.40
2024-05-09T20:05:49.206Z,100853.00
2024-05-09T20:08:17.924Z,100854.80
2024-05-09T20:10:46.705Z,100855.40
2024-05-09T20:13:16.731Z,100858.20
2024-05-09T20:15:45.581Z,100857.60
2024-05-09T20:18:21.135Z,100854.80
2024-05-09T20:20:53.896Z,100853.80
2024-05-09T20:23:25.436Z,100856.60
2024-05-09T20:25:55.971Z,100853.40
2024-05-09T20:28:26.095Z,100854.40
2024-05-09T20:30:56.744Z,100849.20
2024-05-09T20:33:29.501Z,100849.20
2024-05-09T20:36:01.500Z,100852.60
2024-05-09T20:38:30.867Z,100851.00
2024-05-09T20:41:00.155Z,100846.80
2024-05-09T20:43:29.568Z,100851.00
2024-05-09T20:45:57.467Z,100852.20
2024-05-09T20:48:26.800Z,100849.80
2024-05-09T20:50:54.269Z,100849.80
2024-05-09T20:53:21.899Z,100851.00
2024-05-09T20:55:49.376Z,100856.00
2024-05-09T20:58:16.882Z,100855.00
2024-05-09T21:00:45.955Z,100853.60
2024-05-09T21:03:16.627Z,100854.20
2024-05-09T21:05:45.857Z,100858.20
2024-05-09T21:08:13.823Z,100856.20
2024-05-09T21:10:41.360Z,100858.20
2024-05-09T21:13:09.292Z,100857.20
2024-05-09T21:15:37.048Z,100855.40
2024-05-09T21:18:05.273Z,100855.80
2024-05-09T21:20:34.016Z,100857.80
2024-05-09T21:23:02.343Z,100859.80
2024-05-09T21:25:30.911Z,100858.40
2024-05-09T21:27:58.742Z,100863.40
2024-05-09T21:30:32.708Z,100864.40
2024-05-09T21:33:10.399Z,100861.60
2024-05-09T21:35:40.608Z,100861.20
2024-05-09T21:38:08.253Z,100858.20
2024-05-09T21:40:37.699Z,100860.20
2024-05-09T21:43:09.068Z,100858.60
2024-05-09T21:45:36.958Z,100859.80
2024-05-09T21:48:06.189Z,100864.60
2024-05-09T21:50:40.276Z,100858.40
2024-05-09T21:53:11.899Z,100858.60
2024-05-09T21:55:40.464Z,100859.20
2024-05-09T21:58:08.241Z,100859.00
